sensor_id;sensor_type;location;lat;lon;timestamp;P1;durP1;ratioP1;P2;durP2;ratioP2
64885;SDS011;51514;52.206;5.114;2024-01-30T00:01:12;32.17;;;20.65;;
64885;SDS011;51514;52.206;5.114;2024-01-30T00:03:37;29.88;;;19.50;;
64885;SDS011;51514;52.206;5.114;2024-01-30T00:06:03;26.75;;;18.85;;
64885;SDS011;51514;52.206;5.114;2024-01-30T00:08:28;26.40;;;18.73;;
64885;SDS011;51514;52.206;5.114;2024-01-30T00:10:54;28.17;;;19.48;;
64885;SDS011;51514;52.206;5.114;2024-01-30T00:13:19;31.10;;;18.55;;
64885;SDS011;51514;52.206;5.114;2024-01-30T00:15:45;25.90;;;19.17;;
64885;SDS011;51514;52.206;5.114;2024-01-30T00:18:10;28.33;;;19.73;;
64885;SDS011;51514;52.206;5.114;2024-01-30T00:20:36;27.85;;;18.45;;
64885;SDS011;51514;52.206;5.114;2024-01-30T00:23:01;27.77;;;19.15;;
64885;SDS011;51514;52.206;5.114;2024-01-30T00:25:26;26.73;;;19.33;;
64885;SDS011;51514;52.206;5.114;2024-01-30T00:27:52;30.92;;;18.67;;
64885;SDS011;51514;52.206;5.114;2024-01-30T00:30:17;32.75;;;19.38;;
64885;SDS011;51514;52.206;5.114;2024-01-30T00:32:42;30.25;;;18.95;;
64885;SDS011;51514;52.206;5.114;2024-01-30T00:35:08;28.83;;;18.45;;
64885;SDS011;51514;52.206;5.114;2024-01-30T00:37:35;32.10;;;19.10;;
64885;SDS011;51514;52.206;5.114;2024-01-30T00:40:00;28.17;;;18.75;;
64885;SDS011;51514;52.206;5.114;2024-01-30T00:42:26;28.23;;;19.67;;
64885;SDS011;51514;52.206;5.114;2024-01-30T00:44:51;29.63;;;20.02;;
64885;SDS011;51514;52.206;5.114;2024-01-30T00:47:17;27.10;;;18.52;;
64885;SDS011;51514;52.206;5.114;2024-01-30T00:49:42;32.00;;;21.20;;
64885;SDS011;51514;52.206;5.114;2024-01-30T00:52:07;28.98;;;19.30;;
64885;SDS011;51514;52.206;5.114;2024-01-30T00:54:33;29.10;;;18.95;;
64885;SDS011;51514;52.206;5.114;2024-01-30T00:56:58;26.40;;;20.58;;
64885;SDS011;51514;52.206;5.114;2024-01-30T00:59:24;30.20;;;18.92;;
64885;SDS011;51514;52.206;5.114;2024-01-30T01:01:50;25.40;;;18.95;;
64885;SDS011;51514;52.206;5.114;2024-01-30T01:04:15;28.27;;;19.05;;
64885;SDS011;51514;52.206;5.114;2024-01-30T01:06:41;29.80;;;20.30;;
64885;SDS011;51514;52.206;5.114;2024-01-30T01:09:09;25.15;;;17.33;;
64885;SDS011;51514;52.206;5.114;2024-01-30T01:11:35;33.33;;;18.75;;
64885;SDS011;51514;52.206;5.114;2024-01-30T01:14:01;29.65;;;18.45;;
64885;SDS011;51514;52.206;5.114;2024-01-30T01:16:26;25.98;;;18.10;;
64885;SDS011;51514;52.206;5.114;2024-01-30T01:18:51;23.67;;;17.02;;
64885;SDS011;51514;52.206;5.114;2024-01-30T01:21:17;24.35;;;16.95;;
64885;SDS011;51514;52.206;5.114;2024-01-30T01:23:42;25.13;;;16.30;;
64885;SDS011;51514;52.206;5.114;2024-01-30T01:26:08;27.73;;;17.27;;
64885;SDS011;51514;52.206;5.114;2024-01-30T01:28:34;27.88;;;17.13;;
64885;SDS011;51514;52.206;5.114;2024-01-30T01:31:00;24.05;;;16.77;;
64885;SDS011;51514;52.206;5.114;2024-01-30T01:35:57;27.30;;;16.65;;
64885;SDS011;51514;52.206;5.114;2024-01-30T01:38:22;23.95;;;16.45;;
64885;SDS011;51514;52.206;5.114;2024-01-30T01:40:47;26.35;;;16.95;;
64885;SDS011;51514;52.206;5.114;2024-01-30T01:43:13;23.30;;;17.15;;
64885;SDS011;51514;52.206;5.114;2024-01-30T01:45:38;20.05;;;15.70;;
64885;SDS011;51514;52.206;5.114;2024-01-30T01:48:03;24.25;;;15.90;;
64885;SDS011;51514;52.206;5.114;2024-01-30T01:50:29;24.35;;;16.05;;
64885;SDS011;51514;52.206;5.114;2024-01-30T01:52:55;23.27;;;15.68;;
64885;SDS011;51514;52.206;5.114;2024-01-30T01:55:21;27.27;;;16.23;;
64885;SDS011;51514;52.206;5.114;2024-01-30T01:57:49;23.83;;;16.33;;
64885;SDS011;51514;52.206;5.114;2024-01-30T02:00:14;24.30;;;16.50;;
64885;SDS011;51514;52.206;5.114;2024-01-30T02:02:40;23.50;;;15.82;;
64885;SDS011;51514;52.206;5.114;2024-01-30T02:05:08;20.90;;;15.48;;
64885;SDS011;51514;52.206;5.114;2024-01-30T02:07:34;23.10;;;15.90;;
64885;SDS011;51514;52.206;5.114;2024-01-30T02:09:59;25.35;;;15.45;;
64885;SDS011;51514;52.206;5.114;2024-01-30T02:12:25;22.48;;;15.75;;
64885;SDS011;51514;52.206;5.114;2024-01-30T02:14:50;21.30;;;15.10;;
64885;SDS011;51514;52.206;5.114;2024-01-30T02:17:15;28.08;;;16.48;;
64885;SDS011;51514;52.206;5.114;2024-01-30T02:19:41;25.50;;;17.40;;
64885;SDS011;51514;52.206;5.114;2024-01-30T02:22:07;24.33;;;15.18;;
64885;SDS011;51514;52.206;5.114;2024-01-30T02:24:33;27.08;;;15.60;;
64885;SDS011;51514;52.206;5.114;2024-01-30T02:26:59;22.50;;;15.40;;
64885;SDS011;51514;52.206;5.114;2024-01-30T02:29:24;23.17;;;16.13;;
64885;SDS011;51514;52.206;5.114;2024-01-30T02:31:50;23.70;;;16.10;;
64885;SDS011;51514;52.206;5.114;2024-01-30T02:34:15;24.05;;;15.77;;
64885;SDS011;51514;52.206;5.114;2024-01-30T02:36:43;20.05;;;14.93;;
64885;SDS011;51514;52.206;5.114;2024-01-30T02:39:09;21.75;;;15.77;;
64885;SDS011;51514;52.206;5.114;2024-01-30T02:41:34;23.67;;;16.42;;
64885;SDS011;51514;52.206;5.114;2024-01-30T02:44:00;24.38;;;16.90;;
64885;SDS011;51514;52.206;5.114;2024-01-30T02:46:26;18.77;;;14.70;;
64885;SDS011;51514;52.206;5.114;2024-01-30T02:48:52;22.08;;;15.70;;
64885;SDS011;51514;52.206;5.114;2024-01-30T02:51:17;20.33;;;14.80;;
64885;SDS011;51514;52.206;5.114;2024-01-30T02:53:42;22.10;;;15.50;;
64885;SDS011;51514;52.206;5.114;2024-01-30T02:56:08;22.58;;;15.43;;
64885;SDS011;51514;52.206;5.114;2024-01-30T02:58:35;21.58;;;16.42;;
64885;SDS011;51514;52.206;5.114;2024-01-30T03:01:01;21.05;;;16.17;;
64885;SDS011;51514;52.206;5.114;2024-01-30T03:03:26;23.40;;;15.02;;
64885;SDS011;51514;52.206;5.114;2024-01-30T03:05:52;19.98;;;15.40;;
64885;SDS011;51514;52.206;5.114;2024-01-30T03:08:17;23.48;;;16.15;;
64885;SDS011;51514;52.206;5.114;2024-01-30T03:10:42;25.88;;;16.23;;
64885;SDS011;51514;52.206;5.114;2024-01-30T03:13:08;24.40;;;16.13;;
64885;SDS011;51514;52.206;5.114;2024-01-30T03:15:33;24.40;;;16.08;;
64885;SDS011;51514;52.206;5.114;2024-01-30T03:17:58;20.55;;;15.98;;
64885;SDS011;51514;52.206;5.114;2024-01-30T03:20:24;22.08;;;14.65;;
64885;SDS011;51514;52.206;5.114;2024-01-30T03:22:49;21.50;;;15.05;;
64885;SDS011;51514;52.206;5.114;2024-01-30T03:25:14;21.75;;;15.02;;
64885;SDS011;51514;52.206;5.114;2024-01-30T03:27:40;22.65;;;15.52;;
64885;SDS011;51514;52.206;5.114;2024-01-30T03:30:06;22.25;;;15.68;;
64885;SDS011;51514;52.206;5.114;2024-01-30T03:32:31;20.23;;;15.48;;
64885;SDS011;51514;52.206;5.114;2024-01-30T03:34:57;19.15;;;14.30;;
64885;SDS011;51514;52.206;5.114;2024-01-30T03:37:23;25.08;;;17.00;;
64885;SDS011;51514;52.206;5.114;2024-01-30T03:39:48;25.33;;;16.40;;
64885;SDS011;51514;52.206;5.114;2024-01-30T03:42:14;21.75;;;15.80;;
64885;SDS011;51514;52.206;5.114;2024-01-30T03:44:39;21.73;;;16.08;;
64885;SDS011;51514;52.206;5.114;2024-01-30T03:47:05;21.73;;;15.45;;
64885;SDS011;51514;52.206;5.114;2024-01-30T03:49:30;23.33;;;16.08;;
64885;SDS011;51514;52.206;5.114;2024-01-30T03:51:55;22.33;;;14.88;;
64885;SDS011;51514;52.206;5.114;2024-01-30T03:54:21;24.60;;;15.57;;
64885;SDS011;51514;52.206;5.114;2024-01-30T03:56:46;23.67;;;14.70;;
64885;SDS011;51514;52.206;5.114;2024-01-30T03:59:11;22.90;;;14.63;;
64885;SDS011;51514;52.206;5.114;2024-01-30T04:01:37;24.20;;;15.23;;
64885;SDS011;51514;52.206;5.114;2024-01-30T04:04:02;23.40;;;15.93;;
64885;SDS011;51514;52.206;5.114;2024-01-30T04:06:27;22.90;;;15.95;;
64885;SDS011;51514;52.206;5.114;2024-01-30T04:08:53;25.08;;;15.77;;
64885;SDS011;51514;52.206;5.114;2024-01-30T04:11:18;22.48;;;15.50;;
64885;SDS011;51514;52.206;5.114;2024-01-30T04:13:45;23.30;;;15.10;;
64885;SDS011;51514;52.206;5.114;2024-01-30T04:16:19;21.48;;;15.95;;
64885;SDS011;51514;52.206;5.114;2024-01-30T04:18:47;21.67;;;14.40;;
64885;SDS011;51514;52.206;5.114;2024-01-30T04:21:13;20.13;;;14.43;;
64885;SDS011;51514;52.206;5.114;2024-01-30T04:23:39;19.67;;;14.45;;
64885;SDS011;51514;52.206;5.114;2024-01-30T04:26:05;18.48;;;13.48;;
64885;SDS011;51514;52.206;5.114;2024-01-30T04:28:30;25.17;;;15.90;;
64885;SDS011;51514;52.206;5.114;2024-01-30T04:30:56;18.55;;;13.98;;
64885;SDS011;51514;52.206;5.114;2024-01-30T04:33:21;22.50;;;15.50;;
64885;SDS011;51514;52.206;5.114;2024-01-30T04:35:46;21.15;;;14.90;;
64885;SDS011;51514;52.206;5.114;2024-01-30T04:38:12;22.65;;;15.15;;
64885;SDS011;51514;52.206;5.114;2024-01-30T04:40:38;21.50;;;14.68;;
64885;SDS011;51514;52.206;5.114;2024-01-30T04:43:04;21.02;;;15.07;;
64885;SDS011;51514;52.206;5.114;2024-01-30T04:45:29;19.33;;;14.07;;
64885;SDS011;51514;52.206;5.114;2024-01-30T04:47:54;25.60;;;15.38;;
64885;SDS011;51514;52.206;5.114;2024-01-30T04:50:20;20.27;;;14.05;;
64885;SDS011;51514;52.206;5.114;2024-01-30T04:52:45;19.73;;;14.40;;
64885;SDS011;51514;52.206;5.114;2024-01-30T04:55:10;23.83;;;15.70;;
64885;SDS011;51514;52.206;5.114;2024-01-30T04:57:36;19.52;;;14.07;;
64885;SDS011;51514;52.206;5.114;2024-01-30T05:00:01;19.83;;;14.63;;
64885;SDS011;51514;52.206;5.114;2024-01-30T05:02:28;23.08;;;14.48;;
64885;SDS011;51514;52.206;5.114;2024-01-30T05:04:53;22.05;;;14.25;;
64885;SDS011;51514;52.206;5.114;2024-01-30T05:07:19;24.30;;;16.13;;
64885;SDS011;51514;52.206;5.114;2024-01-30T05:09:44;22.55;;;14.77;;
64885;SDS011;51514;52.206;5.114;2024-01-30T05:12:10;18.92;;;14.30;;
64885;SDS011;51514;52.206;5.114;2024-01-30T05:14:35;20.27;;;15.35;;
64885;SDS011;51514;52.206;5.114;2024-01-30T05:17:00;20.25;;;14.73;;
64885;SDS011;51514;52.206;5.114;2024-01-30T05:19:28;19.00;;;14.32;;
64885;SDS011;51514;52.206;5.114;2024-01-30T05:21:53;20.92;;;15.35;;
64885;SDS011;51514;52.206;5.114;2024-01-30T05:24:18;23.35;;;15.68;;
64885;SDS011;51514;52.206;5.114;2024-01-30T05:26:44;23.80;;;15.27;;
64885;SDS011;51514;52.206;5.114;2024-01-30T05:29:09;22.30;;;13.98;;
64885;SDS011;51514;52.206;5.114;2024-01-30T05:31:34;20.60;;;13.90;;
64885;SDS011;51514;52.206;5.114;2024-01-30T05:34:00;19.10;;;14.07;;
64885;SDS011;51514;52.206;5.114;2024-01-30T05:36:25;19.30;;;13.27;;
64885;SDS011;51514;52.206;5.114;2024-01-30T05:38:51;21.67;;;14.25;;
64885;SDS011;51514;52.206;5.114;2024-01-30T05:41:16;19.40;;;13.80;;
64885;SDS011;51514;52.206;5.114;2024-01-30T05:43:42;20.45;;;14.18;;
64885;SDS011;51514;52.206;5.114;2024-01-30T05:46:07;23.25;;;14.05;;
64885;SDS011;51514;52.206;5.114;2024-01-30T05:48:32;22.02;;;13.40;;
64885;SDS011;51514;52.206;5.114;2024-01-30T05:51:00;21.25;;;14.38;;
64885;SDS011;51514;52.206;5.114;2024-01-30T05:53:25;21.60;;;14.05;;
64885;SDS011;51514;52.206;5.114;2024-01-30T05:55:50;24.48;;;13.35;;
64885;SDS011;51514;52.206;5.114;2024-01-30T05:58:16;20.83;;;14.20;;
64885;SDS011;51514;52.206;5.114;2024-01-30T06:00:41;20.20;;;13.40;;
64885;SDS011;51514;52.206;5.114;2024-01-30T06:03:07;21.33;;;14.02;;
64885;SDS011;51514;52.206;5.114;2024-01-30T06:05:32;24.33;;;14.95;;
64885;SDS011;51514;52.206;5.114;2024-01-30T06:07:57;22.50;;;13.68;;
64885;SDS011;51514;52.206;5.114;2024-01-30T06:10:23;19.73;;;12.70;;
64885;SDS011;51514;52.206;5.114;2024-01-30T06:12:48;22.42;;;14.25;;
64885;SDS011;51514;52.206;5.114;2024-01-30T06:15:14;21.00;;;14.05;;
64885;SDS011;51514;52.206;5.114;2024-01-30T06:17:39;23.65;;;13.25;;
64885;SDS011;51514;52.206;5.114;2024-01-30T06:20:05;17.88;;;13.05;;
64885;SDS011;51514;52.206;5.114;2024-01-30T06:22:31;19.08;;;12.73;;
64885;SDS011;51514;52.206;5.114;2024-01-30T06:24:56;22.88;;;12.52;;
64885;SDS011;51514;52.206;5.114;2024-01-30T06:27:21;19.08;;;12.30;;
64885;SDS011;51514;52.206;5.114;2024-01-30T06:29:47;17.08;;;11.93;;
64885;SDS011;51514;52.206;5.114;2024-01-30T06:32:12;21.67;;;12.38;;
64885;SDS011;51514;52.206;5.114;2024-01-30T06:34:37;18.42;;;13.32;;
64885;SDS011;51514;52.206;5.114;2024-01-30T06:37:05;18.35;;;12.73;;
64885;SDS011;51514;52.206;5.114;2024-01-30T06:39:30;20.30;;;12.95;;
64885;SDS011;51514;52.206;5.114;2024-01-30T06:41:55;22.73;;;12.73;;
64885;SDS011;51514;52.206;5.114;2024-01-30T06:44:21;16.95;;;10.95;;
64885;SDS011;51514;52.206;5.114;2024-01-30T06:46:46;20.23;;;11.70;;
64885;SDS011;51514;52.206;5.114;2024-01-30T06:49:11;19.65;;;12.27;;
64885;SDS011;51514;52.206;5.114;2024-01-30T06:51:37;17.98;;;11.52;;
64885;SDS011;51514;52.206;5.114;2024-01-30T06:54:02;17.58;;;11.40;;
64885;SDS011;51514;52.206;5.114;2024-01-30T06:56:28;19.45;;;12.18;;
64885;SDS011;51514;52.206;5.114;2024-01-30T06:58:54;17.00;;;11.52;;
64885;SDS011;51514;52.206;5.114;2024-01-30T07:01:20;18.60;;;12.27;;
64885;SDS011;51514;52.206;5.114;2024-01-30T07:03:46;18.40;;;11.20;;
64885;SDS011;51514;52.206;5.114;2024-01-30T07:06:11;18.38;;;12.00;;
64885;SDS011;51514;52.206;5.114;2024-01-30T07:08:37;16.13;;;10.48;;
64885;SDS011;51514;52.206;5.114;2024-01-30T07:11:04;17.77;;;11.32;;
64885;SDS011;51514;52.206;5.114;2024-01-30T07:13:32;18.55;;;11.68;;
64885;SDS011;51514;52.206;5.114;2024-01-30T07:15:59;14.85;;;11.30;;
64885;SDS011;51514;52.206;5.114;2024-01-30T07:18:24;21.70;;;12.23;;
64885;SDS011;51514;52.206;5.114;2024-01-30T07:20:50;18.58;;;11.90;;
64885;SDS011;51514;52.206;5.114;2024-01-30T07:23:16;17.77;;;11.52;;
64885;SDS011;51514;52.206;5.114;2024-01-30T07:25:45;21.23;;;11.43;;
64885;SDS011;51514;52.206;5.114;2024-01-30T07:28:11;15.13;;;11.55;;
64885;SDS011;51514;52.206;5.114;2024-01-30T07:30:41;16.95;;;11.73;;
64885;SDS011;51514;52.206;5.114;2024-01-30T07:33:07;18.60;;;12.00;;
64885;SDS011;51514;52.206;5.114;2024-01-30T07:35:34;16.52;;;11.85;;
64885;SDS011;51514;52.206;5.114;2024-01-30T07:37:59;21.45;;;12.07;;
64885;SDS011;51514;52.206;5.114;2024-01-30T07:40:25;18.30;;;11.43;;
64885;SDS011;51514;52.206;5.114;2024-01-30T07:42:50;17.13;;;11.32;;
64885;SDS011;51514;52.206;5.114;2024-01-30T07:45:16;19.95;;;11.95;;
64885;SDS011;51514;52.206;5.114;2024-01-30T07:47:41;20.45;;;11.75;;
64885;SDS011;51514;52.206;5.114;2024-01-30T07:50:07;20.45;;;11.73;;
64885;SDS011;51514;52.206;5.114;2024-01-30T07:52:34;20.42;;;11.13;;
64885;SDS011;51514;52.206;5.114;2024-01-30T07:54:59;18.83;;;11.80;;
64885;SDS011;51514;52.206;5.114;2024-01-30T07:57:24;18.85;;;11.98;;
64885;SDS011;51514;52.206;5.114;2024-01-30T07:59:50;17.73;;;11.32;;
64885;SDS011;51514;52.206;5.114;2024-01-30T08:02:15;15.43;;;11.40;;
64885;SDS011;51514;52.206;5.114;2024-01-30T08:04:41;19.73;;;12.05;;
64885;SDS011;51514;52.206;5.114;2024-01-30T08:07:06;25.42;;;11.82;;
64885;SDS011;51514;52.206;5.114;2024-01-30T08:09:32;19.33;;;11.80;;
64885;SDS011;51514;52.206;5.114;2024-01-30T08:11:57;18.55;;;10.95;;
64885;SDS011;51514;52.206;5.114;2024-01-30T08:14:23;15.65;;;10.75;;
64885;SDS011;51514;52.206;5.114;2024-01-30T08:16:48;15.45;;;10.50;;
64885;SDS011;51514;52.206;5.114;2024-01-30T08:19:16;17.40;;;10.60;;
64885;SDS011;51514;52.206;5.114;2024-01-30T08:21:42;19.10;;;11.35;;
64885;SDS011;51514;52.206;5.114;2024-01-30T08:24:07;20.00;;;11.18;;
64885;SDS011;51514;52.206;5.114;2024-01-30T08:26:33;17.27;;;11.48;;
64885;SDS011;51514;52.206;5.114;2024-01-30T08:28:58;22.38;;;10.90;;
64885;SDS011;51514;52.206;5.114;2024-01-30T08:31:24;22.75;;;11.07;;
64885;SDS011;51514;52.206;5.114;2024-01-30T08:33:49;22.13;;;11.27;;
64885;SDS011;51514;52.206;5.114;2024-01-30T08:36:15;18.85;;;10.35;;
64885;SDS011;51514;52.206;5.114;2024-01-30T08:38:41;24.40;;;11.23;;
64885;SDS011;51514;52.206;5.114;2024-01-30T08:41:07;17.48;;;10.52;;
64885;SDS011;51514;52.206;5.114;2024-01-30T08:43:33;19.13;;;11.27;;
64885;SDS011;51514;52.206;5.114;2024-01-30T08:46:02;18.02;;;10.23;;
64885;SDS011;51514;52.206;5.114;2024-01-30T08:48:28;19.35;;;10.93;;
64885;SDS011;51514;52.206;5.114;2024-01-30T08:50:54;15.52;;;10.30;;
64885;SDS011;51514;52.206;5.114;2024-01-30T08:53:19;17.75;;;11.18;;
64885;SDS011;51514;52.206;5.114;2024-01-30T08:55:45;20.25;;;11.40;;
64885;SDS011;51514;52.206;5.114;2024-01-30T08:58:10;20.80;;;11.60;;
64885;SDS011;51514;52.206;5.114;2024-01-30T09:00:36;21.98;;;12.65;;
64885;SDS011;51514;52.206;5.114;2024-01-30T09:03:02;14.70;;;10.07;;
64885;SDS011;51514;52.206;5.114;2024-01-30T09:05:28;20.35;;;10.93;;
64885;SDS011;51514;52.206;5.114;2024-01-30T09:07:53;17.33;;;10.15;;
64885;SDS011;51514;52.206;5.114;2024-01-30T09:10:19;21.98;;;12.13;;
64885;SDS011;51514;52.206;5.114;2024-01-30T09:12:45;15.95;;;10.82;;
64885;SDS011;51514;52.206;5.114;2024-01-30T09:15:11;17.67;;;11.35;;
64885;SDS011;51514;52.206;5.114;2024-01-30T09:17:36;17.77;;;11.02;;
64885;SDS011;51514;52.206;5.114;2024-01-30T09:20:01;20.35;;;11.95;;
64885;SDS011;51514;52.206;5.114;2024-01-30T09:22:27;19.42;;;11.25;;
64885;SDS011;51514;52.206;5.114;2024-01-30T09:24:52;24.10;;;11.77;;
64885;SDS011;51514;52.206;5.114;2024-01-30T09:27:19;19.73;;;11.18;;
64885;SDS011;51514;52.206;5.114;2024-01-30T09:29:45;23.58;;;11.85;;
64885;SDS011;51514;52.206;5.114;2024-01-30T09:32:12;20.77;;;10.95;;
64885;SDS011;51514;52.206;5.114;2024-01-30T09:34:42;17.95;;;11.75;;
64885;SDS011;51514;52.206;5.114;2024-01-30T09:37:08;27.02;;;10.77;;
64885;SDS011;51514;52.206;5.114;2024-01-30T09:39:33;20.30;;;11.88;;
64885;SDS011;51514;52.206;5.114;2024-01-30T09:42:05;21.02;;;11.32;;
64885;SDS011;51514;52.206;5.114;2024-01-30T09:44:42;20.63;;;12.05;;
64885;SDS011;51514;52.206;5.114;2024-01-30T09:47:08;16.60;;;11.35;;
64885;SDS011;51514;52.206;5.114;2024-01-30T09:49:34;17.08;;;10.90;;
64885;SDS011;51514;52.206;5.114;2024-01-30T09:52:01;16.52;;;10.90;;
64885;SDS011;51514;52.206;5.114;2024-01-30T09:54:29;21.83;;;10.85;;
64885;SDS011;51514;52.206;5.114;2024-01-30T09:56:56;22.25;;;11.02;;
64885;SDS011;51514;52.206;5.114;2024-01-30T09:59:21;18.60;;;11.70;;
64885;SDS011;51514;52.206;5.114;2024-01-30T10:01:46;22.08;;;10.75;;
64885;SDS011;51514;52.206;5.114;2024-01-30T10:04:12;15.57;;;10.52;;
64885;SDS011;51514;52.206;5.114;2024-01-30T10:06:38;16.20;;;11.13;;
64885;SDS011;51514;52.206;5.114;2024-01-30T10:09:04;19.17;;;11.73;;
64885;SDS011;51514;52.206;5.114;2024-01-30T10:11:30;20.02;;;12.20;;
64885;SDS011;51514;52.206;5.114;2024-01-30T10:13:55;18.75;;;11.57;;
64885;SDS011;51514;52.206;5.114;2024-01-30T10:16:20;22.15;;;12.00;;
64885;SDS011;51514;52.206;5.114;2024-01-30T10:18:46;18.70;;;11.63;;
64885;SDS011;51514;52.206;5.114;2024-01-30T10:21:12;19.67;;;11.93;;
64885;SDS011;51514;52.206;5.114;2024-01-30T10:23:38;19.48;;;11.95;;
64885;SDS011;51514;52.206;5.114;2024-01-30T10:26:07;18.20;;;9.85;;
64885;SDS011;51514;52.206;5.114;2024-01-30T10:28:33;16.48;;;9.13;;
64885;SDS011;51514;52.206;5.114;2024-01-30T10:30:59;19.45;;;9.75;;
64885;SDS011;51514;52.206;5.114;2024-01-30T10:33:25;16.85;;;8.13;;
64885;SDS011;51514;52.206;5.114;2024-01-30T10:35:59;15.00;;;7.73;;
64885;SDS011;51514;52.206;5.114;2024-01-30T10:38:27;13.32;;;7.22;;
64885;SDS011;51514;52.206;5.114;2024-01-30T10:40:56;14.80;;;8.13;;
64885;SDS011;51514;52.206;5.114;2024-01-30T10:43:22;19.08;;;7.15;;
64885;SDS011;51514;52.206;5.114;2024-01-30T10:45:55;17.40;;;7.53;;
64885;SDS011;51514;52.206;5.114;2024-01-30T10:48:25;19.10;;;7.85;;
64885;SDS011;51514;52.206;5.114;2024-01-30T10:50:55;15.80;;;7.57;;
64885;SDS011;51514;52.206;5.114;2024-01-30T10:53:22;13.32;;;7.47;;
64885;SDS011;51514;52.206;5.114;2024-01-30T10:55:48;18.33;;;7.05;;
64885;SDS011;51514;52.206;5.114;2024-01-30T10:58:17;16.40;;;6.40;;
64885;SDS011;51514;52.206;5.114;2024-01-30T11:00:43;15.68;;;6.10;;
64885;SDS011;51514;52.206;5.114;2024-01-30T11:03:10;10.52;;;4.90;;
64885;SDS011;51514;52.206;5.114;2024-01-30T11:05:40;7.55;;;4.13;;
64885;SDS011;51514;52.206;5.114;2024-01-30T11:08:15;14.25;;;5.38;;
64885;SDS011;51514;52.206;5.114;2024-01-30T11:10:49;10.77;;;4.05;;
64885;SDS011;51514;52.206;5.114;2024-01-30T11:13:15;9.68;;;4.15;;
64885;SDS011;51514;52.206;5.114;2024-01-30T11:15:40;9.20;;;3.85;;
64885;SDS011;51514;52.206;5.114;2024-01-30T11:18:06;7.82;;;3.97;;
64885;SDS011;51514;52.206;5.114;2024-01-30T11:20:31;10.60;;;4.70;;
64885;SDS011;51514;52.206;5.114;2024-01-30T11:22:57;12.77;;;4.57;;
64885;SDS011;51514;52.206;5.114;2024-01-30T11:25:24;8.73;;;5.20;;
64885;SDS011;51514;52.206;5.114;2024-01-30T11:27:51;11.60;;;5.63;;
64885;SDS011;51514;52.206;5.114;2024-01-30T11:35:33;11.07;;;6.40;;
64885;SDS011;51514;52.206;5.114;2024-01-30T11:37:59;12.35;;;7.13;;
64885;SDS011;51514;52.206;5.114;2024-01-30T11:40:29;9.25;;;6.30;;
64885;SDS011;51514;52.206;5.114;2024-01-30T11:42:55;11.60;;;6.07;;
64885;SDS011;51514;52.206;5.114;2024-01-30T11:45:23;8.70;;;5.75;;
64885;SDS011;51514;52.206;5.114;2024-01-30T11:47:48;10.15;;;4.82;;
64885;SDS011;51514;52.206;5.114;2024-01-30T11:50:14;6.80;;;3.92;;
64885;SDS011;51514;52.206;5.114;2024-01-30T11:52:40;7.20;;;3.33;;
64885;SDS011;51514;52.206;5.114;2024-01-30T11:55:06;6.82;;;3.10;;
64885;SDS011;51514;52.206;5.114;2024-01-30T11:57:33;8.85;;;4.65;;
64885;SDS011;51514;52.206;5.114;2024-01-30T12:00:00;9.95;;;3.20;;
64885;SDS011;51514;52.206;5.114;2024-01-30T12:02:26;6.65;;;2.90;;
64885;SDS011;51514;52.206;5.114;2024-01-30T12:04:51;9.52;;;2.90;;
64885;SDS011;51514;52.206;5.114;2024-01-30T12:07:17;5.78;;;2.83;;
64885;SDS011;51514;52.206;5.114;2024-01-30T12:09:51;8.00;;;2.70;;
64885;SDS011;51514;52.206;5.114;2024-01-30T12:12:17;7.25;;;2.65;;
64885;SDS011;51514;52.206;5.114;2024-01-30T12:14:43;10.18;;;2.30;;
64885;SDS011;51514;52.206;5.114;2024-01-30T12:17:08;6.55;;;2.05;;
64885;SDS011;51514;52.206;5.114;2024-01-30T12:19:34;8.75;;;2.60;;
64885;SDS011;51514;52.206;5.114;2024-01-30T12:21:59;8.75;;;2.90;;
64885;SDS011;51514;52.206;5.114;2024-01-30T12:24:25;6.57;;;2.85;;
64885;SDS011;51514;52.206;5.114;2024-01-30T12:26:57;6.80;;;3.25;;
64885;SDS011;51514;52.206;5.114;2024-01-30T12:29:24;6.20;;;2.63;;
64885;SDS011;51514;52.206;5.114;2024-01-30T12:31:52;8.80;;;2.50;;
64885;SDS011;51514;52.206;5.114;2024-01-30T12:34:18;8.70;;;2.65;;
64885;SDS011;51514;52.206;5.114;2024-01-30T12:36:45;10.30;;;3.75;;
64885;SDS011;51514;52.206;5.114;2024-01-30T12:39:12;7.70;;;2.42;;
64885;SDS011;51514;52.206;5.114;2024-01-30T12:41:39;7.88;;;2.88;;
64885;SDS011;51514;52.206;5.114;2024-01-30T12:44:05;8.35;;;3.28;;
64885;SDS011;51514;52.206;5.114;2024-01-30T12:46:30;13.52;;;2.85;;
64885;SDS011;51514;52.206;5.114;2024-01-30T12:48:56;5.47;;;2.53;;
64885;SDS011;51514;52.206;5.114;2024-01-30T12:51:21;10.65;;;3.00;;
64885;SDS011;51514;52.206;5.114;2024-01-30T12:53:46;11.52;;;2.92;;
64885;SDS011;51514;52.206;5.114;2024-01-30T12:56:13;10.15;;;3.03;;
64885;SDS011;51514;52.206;5.114;2024-01-30T12:58:39;10.82;;;3.20;;
64885;SDS011;51514;52.206;5.114;2024-01-30T13:01:06;11.82;;;3.20;;
64885;SDS011;51514;52.206;5.114;2024-01-30T13:03:32;5.82;;;2.70;;
64885;SDS011;51514;52.206;5.114;2024-01-30T13:05:57;9.82;;;3.45;;
64885;SDS011;51514;52.206;5.114;2024-01-30T13:08:23;9.68;;;3.53;;
64885;SDS011;51514;52.206;5.114;2024-01-30T13:10:49;9.32;;;3.00;;
64885;SDS011;51514;52.206;5.114;2024-01-30T13:13:14;10.73;;;3.42;;
64885;SDS011;51514;52.206;5.114;2024-01-30T13:15:40;10.55;;;2.70;;
64885;SDS011;51514;52.206;5.114;2024-01-30T13:18:05;10.43;;;4.07;;
64885;SDS011;51514;52.206;5.114;2024-01-30T13:20:31;8.93;;;2.85;;
64885;SDS011;51514;52.206;5.114;2024-01-30T13:22:56;6.53;;;2.70;;
64885;SDS011;51514;52.206;5.114;2024-01-30T13:25:23;6.40;;;3.30;;
64885;SDS011;51514;52.206;5.114;2024-01-30T13:27:48;9.68;;;3.08;;
64885;SDS011;51514;52.206;5.114;2024-01-30T13:30:14;7.80;;;3.25;;
64885;SDS011;51514;52.206;5.114;2024-01-30T13:32:39;11.65;;;3.20;;
64885;SDS011;51514;52.206;5.114;2024-01-30T13:35:06;7.82;;;3.17;;
64885;SDS011;51514;52.206;5.114;2024-01-30T13:37:32;15.10;;;3.67;;
64885;SDS011;51514;52.206;5.114;2024-01-30T13:39:57;8.60;;;3.30;;
64885;SDS011;51514;52.206;5.114;2024-01-30T13:42:23;10.98;;;4.00;;
64885;SDS011;51514;52.206;5.114;2024-01-30T13:44:48;9.38;;;4.82;;
64885;SDS011;51514;52.206;5.114;2024-01-30T13:47:13;8.88;;;3.85;;
64885;SDS011;51514;52.206;5.114;2024-01-30T13:49:39;11.75;;;4.45;;
64885;SDS011;51514;52.206;5.114;2024-01-30T13:52:04;7.03;;;4.10;;
64885;SDS011;51514;52.206;5.114;2024-01-30T13:54:30;8.20;;;4.10;;
64885;SDS011;51514;52.206;5.114;2024-01-30T13:56:55;10.93;;;4.57;;
64885;SDS011;51514;52.206;5.114;2024-01-30T13:59:21;9.52;;;5.38;;
64885;SDS011;51514;52.206;5.114;2024-01-30T14:01:49;8.60;;;4.85;;
64885;SDS011;51514;52.206;5.114;2024-01-30T14:04:15;11.77;;;4.82;;
64885;SDS011;51514;52.206;5.114;2024-01-30T14:06:40;11.95;;;5.85;;
64885;SDS011;51514;52.206;5.114;2024-01-30T14:09:06;10.45;;;5.80;;
64885;SDS011;51514;52.206;5.114;2024-01-30T14:11:31;11.95;;;5.72;;
64885;SDS011;51514;52.206;5.114;2024-01-30T14:13:57;11.95;;;6.15;;
64885;SDS011;51514;52.206;5.114;2024-01-30T14:16:22;12.88;;;6.55;;
64885;SDS011;51514;52.206;5.114;2024-01-30T14:18:49;10.77;;;6.32;;
64885;SDS011;51514;52.206;5.114;2024-01-30T14:21:14;11.77;;;6.28;;
64885;SDS011;51514;52.206;5.114;2024-01-30T14:23:40;12.20;;;6.15;;
64885;SDS011;51514;52.206;5.114;2024-01-30T14:26:05;12.13;;;6.10;;